Time;durP1;ratioP1;P1;durP2;ratioP2;P2;SDS_P1;SDS_P2;PMS_P1;PMS_P2;Temp;Humidity;BMP_temperature;BMP_pressure;BME280_temperature;BME280_humidity;BME280_pressure;Samples;Min_cycle;Max_cycle;Signal;HPM_P1;HPM_P2
2023/07/08 00:00:15;;;;;;;7.60;6.80;;;22.30;61.80;;;;;;4972276;28;20495;-70
2023/07/08 00:02:43;;;;;;;7.50;6.77;;;22.40;61.70;;;;;;4970941;28;20501;-69
2023/07/08 00:05:11;;;;;;;7.43;6.70;;;22.40;61.40;;;;;;4971572;28;20824;-70
2023/07/08 00:07:39;;;;;;;7.33;6.73;;;22.40;61.60;;;;;;4977769;28;20461;-71
2023/07/08 00:10:14;;;;;;;7.50;6.70;;;22.40;61.70;;;;;;4970908;28;20589;-71
2023/07/08 00:12:41;;;;;;;7.13;6.53;;;22.40;62.10;;;;;;4971566;28;20569;-69
2023/07/08 00:15:10;;;;;;;6.40;5.80;;;22.30;62.00;;;;;;4973217;28;20968;-69
2023/07/08 00:17:37;;;;;;;8.10;7.30;;;22.30;62.10;;;;;;4977280;28;20482;-69
2023/07/08 00:20:14;;;;;;;7.63;7.00;;;22.30;61.90;;;;;;4970237;28;20492;-69
2023/07/08 00:22:42;;;;;;;7.87;7.07;;;22.30;61.90;;;;;;4973097;28;20450;-71
2023/07/08 00:25:10;;;;;;;7.37;6.57;;;22.30;62.40;;;;;;4976357;28;20867;-69
2023/07/08 00:27:38;;;;;;;7.80;7.10;;;22.30;62.50;;;;;;4972230;28;20865;-70
2023/07/08 00:30:20;;;;;;;8.50;7.60;;;22.20;62.50;;;;;;4975753;28;20493;-70
2023/07/08 00:32:53;;;;;;;8.07;7.27;;;22.10;62.80;;;;;;4975902;28;20455;-70
2023/07/08 00:35:23;;;;;;;7.73;7.03;;;22.10;62.80;;;;;;4977410;28;20888;-70
2023/07/08 00:37:52;;;;;;;7.30;6.53;;;22.10;62.90;;;;;;4972907;28;20557;-68
2023/07/08 00:40:21;;;;;;;8.30;7.40;;;22.10;62.80;;;;;;4969624;28;20866;-69
2023/07/08 00:42:50;;;;;;;7.73;7.00;;;22.10;62.80;;;;;;4970707;28;20459;-70
2023/07/08 00:45:30;;;;;;;6.87;6.20;;;22.00;62.90;;;;;;4972558;28;20443;-70
2023/07/08 00:48:04;;;;;;;6.70;6.10;;;22.00;63.00;;;;;;4978426;28;20980;-70
2023/07/08 00:50:31;;;;;;;8.00;7.20;;;22.00;63.20;;;;;;4972570;28;20514;-70
2023/07/08 00:53:32;;;;;;;7.00;6.30;;;22.00;63.20;;;;;;4981133;28;20457;-71
2023/07/08 00:56:04;;;;;;;7.40;6.67;;;22.00;63.90;;;;;;4942995;29;20459;-71
2023/07/08 00:58:36;;;;;;;6.70;5.90;;;21.90;64.40;;;;;;4932668;28;20546;-70
2023/07/08 01:01:06;;;;;;;6.90;6.30;;;22.00;65.10;;;;;;4950047;28;20483;-71
2023/07/08 01:03:39;;;;;;;8.00;6.87;;;21.60;65.20;;;;;;4970129;28;20439;-71
2023/07/08 01:06:06;;;;;;;7.67;6.97;;;21.50;65.40;;;;;;4970897;28;20454;-70
2023/07/08 01:08:33;;;;;;;8.00;7.20;;;21.50;65.50;;;;;;4970259;28;20466;-71
2023/07/08 01:11:03;;;;;;;7.90;6.97;;;21.50;65.40;;;;;;4971384;28;20990;-70
2023/07/08 01:13:36;;;;;;;7.20;6.53;;;21.50;65.30;;;;;;4969069;28;20486;-70
2023/07/08 01:16:04;;;;;;;7.30;6.70;;;21.50;65.00;;;;;;4970402;28;20447;-69
2023/07/08 01:18:33;;;;;;;7.37;6.30;;;21.40;64.70;;;;;;4970703;28;20533;-70
2023/07/08 01:21:04;;;;;;;7.60;6.90;;;21.50;64.60;;;;;;4977549;28;20578;-70
2023/07/08 01:23:33;;;;;;;7.33;6.63;;;21.50;64.50;;;;;;4988514;28;20459;-70
2023/07/08 01:26:01;;;;;;;6.93;6.23;;;21.40;64.10;;;;;;4977316;28;21049;-69
2023/07/08 01:28:29;;;;;;;7.77;7.07;;;21.50;63.90;;;;;;4969561;28;21136;-70
2023/07/08 01:30:56;;;;;;;7.20;6.50;;;21.50;63.90;;;;;;4973867;28;20519;-69
2023/07/08 01:33:24;;;;;;;7.10;6.37;;;21.60;63.40;;;;;;4976656;28;20471;-69
2023/07/08 01:35:51;;;;;;;7.00;6.40;;;21.60;63.50;;;;;;4971908;28;20459;-70
2023/07/08 01:38:23;;;;;;;7.70;7.00;;;21.70;63.80;;;;;;4972092;28;20574;-70
2023/07/08 01:40:53;;;;;;;7.63;6.97;;;21.70;63.60;;;;;;4971074;28;20485;-70
2023/07/08 01:43:21;;;;;;;6.97;6.27;;;21.70;63.60;;;;;;4970953;28;20554;-69
2023/07/08 01:45:50;;;;;;;7.17;6.47;;;21.70;63.80;;;;;;4969259;28;20446;-69
2023/07/08 01:48:19;;;;;;;6.50;6.00;;;21.70;63.60;;;;;;4974765;28;20451;-69
2023/07/08 01:50:50;;;;;;;7.10;6.50;;;21.60;63.60;;;;;;4970389;28;20489;-70
2023/07/08 01:53:22;;;;;;;7.57;6.73;;;21.60;63.50;;;;;;4988938;28;20489;-69
2023/07/08 01:55:49;;;;;;;7.10;6.40;;;21.60;63.50;;;;;;4971983;28;20546;-69
2023/07/08 01:58:18;;;;;;;7.20;6.60;;;21.60;63.40;;;;;;4970276;28;20552;-70
2023/07/08 02:00:48;;;;;;;6.60;6.00;;;21.60;63.40;;;;;;4969883;28;20505;-69
2023/07/08 02:03:16;;;;;;;7.17;6.17;;;21.60;63.50;;;;;;4975692;28;20477;-68
2023/07/08 02:05:43;;;;;;;7.33;6.73;;;21.60;63.70;;;;;;4972982;28;20497;-69
2023/07/08 02:08:10;;;;;;;6.90;6.30;;;21.50;63.80;;;;;;4973107;28;20871;-69
2023/07/08 02:10:38;;;;;;;6.70;6.10;;;21.50;64.10;;;;;;4973291;28;20582;-71
2023/07/08 02:13:06;;;;;;;6.47;5.90;;;21.50;64.20;;;;;;4974041;28;20489;-69
2023/07/08 02:15:34;;;;;;;8.20;7.40;;;21.40;64.30;;;;;;4973964;28;20458;-69
2023/07/08 02:18:03;;;;;;;6.53;5.93;;;21.40;64.50;;;;;;4972895;28;20557;-69
2023/07/08 02:20:30;;;;;;;7.03;6.30;;;21.30;64.90;;;;;;4973800;28;20482;-69
2023/07/08 02:22:57;;;;;;;7.07;6.37;;;21.20;65.00;;;;;;4970853;28;20502;-69
2023/07/08 02:25:26;;;;;;;7.20;6.50;;;21.20;65.30;;;;;;4971704;28;20483;-69
2023/07/08 02:27:54;;;;;;;7.30;6.50;;;21.10;65.60;;;;;;4977362;28;20463;-70
2023/07/08 02:30:21;;;;;;;7.90;7.20;;;21.10;65.90;;;;;;4974192;28;20485;-70
2023/07/08 02:32:56;;;;;;;6.80;5.83;;;21.10;66.10;;;;;;4972966;28;20497;-69
2023/07/08 02:35:24;;;;;;;7.17;6.57;;;21.00;66.10;;;;;;4972094;28;20458;-70
2023/07/08 02:37:52;;;;;;;6.90;6.30;;;21.10;66.30;;;;;;4987700;28;20831;-70
2023/07/08 02:40:19;;;;;;;7.07;6.40;;;21.00;66.60;;;;;;4989292;28;21191;-69
2023/07/08 02:42:45;;;;;;;7.30;6.60;;;20.90;67.10;;;;;;4975472;28;20454;-70
2023/07/08 02:45:13;;;;;;;7.50;6.80;;;20.90;67.70;;;;;;4973668;28;20819;-71
2023/07/08 02:47:40;;;;;;;9.17;6.33;;;20.80;68.50;;;;;;4972458;28;20458;-69
2023/07/08 02:50:09;;;;;;;7.40;6.80;;;20.70;69.10;;;;;;4972671;28;20670;-69
2023/07/08 02:52:37;;;;;;;7.20;6.50;;;20.60;69.80;;;;;;4977353;28;20622;-70
2023/07/08 02:55:06;;;;;;;7.70;6.90;;;20.60;69.30;;;;;;4973637;28;20464;-69
2023/07/08 02:57:33;;;;;;;7.50;6.80;;;20.60;69.60;;;;;;4971829;28;21507;-69
2023/07/08 03:00:01;;;;;;;7.73;7.07;;;20.50;69.90;;;;;;4973510;28;20478;-69
2023/07/08 03:02:28;;;;;;;6.97;6.37;;;20.40;69.80;;;;;;4972067;28;20465;-70
2023/07/08 03:04:58;;;;;;;8.40;6.77;;;20.40;69.70;;;;;;4972640;28;20465;-70
2023/07/08 03:07:27;;;;;;;7.47;6.77;;;20.40;69.90;;;;;;4974142;28;20482;-71
2023/07/08 03:09:54;;;;;;;7.53;6.83;;;20.40;69.90;;;;;;4987988;28;20467;-70
2023/07/08 03:12:21;;;;;;;7.20;6.50;;;20.40;69.70;;;;;;4973022;28;20497;-70
2023/07/08 03:14:48;;;;;;;7.40;6.70;;;20.40;69.90;;;;;;4973389;28;20462;-71
2023/07/08 03:17:16;;;;;;;7.70;6.40;;;20.40;70.30;;;;;;4972983;28;21026;-70
2023/07/08 03:19:43;;;;;;;7.97;7.20;;;20.40;70.50;;;;;;4981397;28;20985;-70
2023/07/08 03:22:10;;;;;;;7.50;6.80;;;20.30;70.90;;;;;;4973760;28;20960;-70
2023/07/08 03:24:45;;;;;;;7.67;6.60;;;20.30;71.10;;;;;;4975960;28;20461;-68
2023/07/08 03:27:12;;;;;;;7.50;6.80;;;20.20;71.10;;;;;;4972029;28;20489;-70
2023/07/08 03:29:39;;;;;;;7.30;6.57;;;20.10;72.80;;;;;;4972542;28;20557;-70
2023/07/08 03:32:08;;;;;;;8.10;7.30;;;20.00;73.00;;;;;;4971165;28;20479;-69
2023/07/08 03:34:36;;;;;;;8.57;7.37;;;19.90;73.80;;;;;;4976629;28;20963;-69
2023/07/08 03:37:03;;;;;;;7.37;6.60;;;19.90;72.00;;;;;;4971756;28;20972;-69
2023/07/08 03:39:31;;;;;;;9.40;6.80;;;20.00;72.20;;;;;;4971929;28;20475;-70
2023/07/08 03:42:00;;;;;;;8.97;7.33;;;20.00;72.50;;;;;;4973207;28;20464;-70
2023/07/08 03:44:27;;;;;;;7.87;7.17;;;19.90;73.70;;;;;;4973680;28;20464;-71
2023/07/08 03:46:54;;;;;;;8.00;7.03;;;19.80;74.20;;;;;;4976659;28;20552;-77
2023/07/08 03:49:23;;;;;;;7.77;7.07;;;19.70;74.00;;;;;;4971745;28;20483;-77
2023/07/08 03:51:53;;;;;;;7.50;6.80;;;19.50;74.60;;;;;;4978891;28;20487;-77
2023/07/08 03:54:21;;;;;;;7.00;6.30;;;19.50;76.20;;;;;;4977873;28;20462;-75
2023/07/08 03:56:49;;;;;;;6.73;6.13;;;19.50;77.10;;;;;;4971812;28;20455;-76
2023/07/08 03:59:18;;;;;;;7.73;6.90;;;19.40;77.10;;;;;;4979062;28;20489;-75
2023/07/08 04:01:45;;;;;;;9.53;7.90;;;19.50;76.60;;;;;;4971725;28;20819;-76
2023/07/08 04:04:15;;;;;;;7.93;7.17;;;19.50;76.30;;;;;;4976576;28;20560;-77
2023/07/08 04:06:43;;;;;;;8.00;7.20;;;19.60;76.40;;;;;;4971591;28;20466;-76
2023/07/08 04:09:10;;;;;;;7.90;7.13;;;19.70;76.10;;;;;;4982367;28;20469;-77
2023/07/08 04:11:38;;;;;;;7.80;7.00;;;19.70;77.00;;;;;;4971810;28;20856;-77
2023/07/08 04:14:05;;;;;;;7.23;6.53;;;19.70;77.10;;;;;;4971329;28;20510;-77
2023/07/08 04:16:46;;;;;;;8.00;7.20;;;19.70;77.40;;;;;;4953933;28;20781;-77
2023/07/08 04:19:15;;;;;;;7.80;7.00;;;19.70;77.10;;;;;;4971189;28;20564;-75
2023/07/08 04:21:43;;;;;;;8.77;7.93;;;19.70;77.60;;;;;;4972556;28;20452;-78
2023/07/08 04:24:11;;;;;;;8.33;7.13;;;19.60;78.20;;;;;;4973713;28;20474;-76
2023/07/08 04:26:39;;;;;;;8.23;7.40;;;19.70;78.20;;;;;;4971495;28;20572;-76
2023/07/08 04:29:10;;;;;;;8.27;7.40;;;19.70;79.60;;;;;;4979674;28;21055;-76
2023/07/08 04:31:39;;;;;;;8.20;7.50;;;19.80;78.90;;;;;;4975226;28;20486;-76
2023/07/08 04:34:06;;;;;;;7.80;7.00;;;19.70;81.30;;;;;;4972971;28;20470;-76
2023/07/08 04:36:33;;;;;;;8.53;7.73;;;19.80;79.80;;;;;;4973954;28;20457;-76
2023/07/08 04:39:01;;;;;;;8.13;7.43;;;19.90;78.50;;;;;;4972038;28;20843;-77
2023/07/08 04:41:28;;;;;;;9.30;8.30;;;20.00;78.50;;;;;;4971904;28;20468;-76
2023/07/08 04:43:57;;;;;;;9.40;7.63;;;20.10;78.20;;;;;;4971130;28;20458;-76
2023/07/08 04:46:34;;;;;;;8.30;7.50;;;20.20;78.80;;;;;;4975016;28;20455;-76
2023/07/08 04:49:04;;;;;;;7.43;6.73;;;20.30;76.70;;;;;;4971248;28;21001;-79
2023/07/08 04:51:31;;;;;;;6.77;6.17;;;20.40;77.40;;;;;;4973131;28;20465;-77
2023/07/08 04:53:58;;;;;;;7.67;6.97;;;20.40;76.90;;;;;;4973767;28;20471;-78
2023/07/08 04:56:35;;;;;;;7.40;6.70;;;20.50;76.90;;;;;;4971556;28;20468;-77
2023/07/08 04:59:02;;;;;;;7.30;6.70;;;20.60;78.30;;;;;;4980585;28;20565;-78
2023/07/08 05:01:30;;;;;;;7.73;7.00;;;20.70;79.10;;;;;;4976177;28;20553;-65
2023/07/08 05:03:57;;;;;;;7.30;6.60;;;20.60;79.60;;;;;;4977855;28;20814;-78
2023/07/08 05:06:25;;;;;;;8.10;7.30;;;20.60;80.40;;;;;;4971746;28;20463;-78
2023/07/08 05:08:53;;;;;;;7.60;6.90;;;20.60;81.70;;;;;;4971364;28;21021;-78
2023/07/08 05:11:20;;;;;;;8.27;7.47;;;20.60;82.30;;;;;;4972541;28;20969;-78
2023/07/08 05:13:47;;;;;;;7.43;6.73;;;20.50;83.10;;;;;;4970842;28;20518;-78
2023/07/08 05:16:14;;;;;;;7.63;6.83;;;20.40;84.50;;;;;;4978431;28;20983;-78
2023/07/08 05:18:41;;;;;;;7.90;7.10;;;20.40;85.40;;;;;;4970644;28;20489;-79
2023/07/08 05:21:10;;;;;;;7.93;7.13;;;20.30;87.00;;;;;;4975808;28;20952;-78
2023/07/08 05:23:39;;;;;;;8.83;8.00;;;20.30;87.20;;;;;;4971822;28;20462;-77
2023/07/08 05:26:08;;;;;;;7.73;6.93;;;20.30;87.80;;;;;;4979895;28;20533;-77
2023/07/08 05:28:35;;;;;;;8.03;7.33;;;20.30;88.70;;;;;;4981105;28;20473;-78
2023/07/08 05:31:02;;;;;;;7.57;6.87;;;20.30;88.20;;;;;;4973633;28;20982;-79
2023/07/08 05:33:31;;;;;;;7.80;7.10;;;20.30;85.90;;;;;;4966865;28;20575;-78
2023/07/08 05:35:58;;;;;;;7.40;6.70;;;20.30;86.70;;;;;;4970496;28;20459;-79
2023/07/08 05:38:26;;;;;;;7.50;6.80;;;20.30;86.80;;;;;;4975132;28;20490;-79
2023/07/08 05:40:55;;;;;;;7.60;6.80;;;20.40;86.70;;;;;;4974476;28;20533;-78
2023/07/08 05:43:23;;;;;;;7.10;6.43;;;20.40;86.10;;;;;;4978245;28;20863;-76
2023/07/08 05:45:51;;;;;;;7.47;6.77;;;20.40;85.30;;;;;;4975682;28;20557;-73
2023/07/08 05:48:18;;;;;;;8.13;6.80;;;20.50;88.80;;;;;;4976164;28;20904;-70
2023/07/08 05:50:48;;;;;;;7.80;7.10;;;20.60;90.00;;;;;;4988087;28;20467;-79
2023/07/08 05:53:15;;;;;;;7.53;6.80;;;20.70;85.60;;;;;;4994070;28;20521;-72
2023/07/08 05:55:43;;;;;;;7.93;7.23;;;20.80;85.90;;;;;;4973531;28;20484;-72
2023/07/08 05:58:15;;;;;;;7.63;6.93;;;20.90;85.80;;;;;;4980721;28;20548;-72
2023/07/08 06:00:42;;;;;;;6.47;5.90;;;21.00;86.70;;;;;;4987161;28;20525;-80
2023/07/08 06:03:09;;;;;;;8.73;7.47;;;21.10;85.80;;;;;;4978280;28;20819;-79
2023/07/08 06:05:37;;;;;;;7.60;6.90;;;21.20;86.90;;;;;;4980427;28;20457;-79
2023/07/08 06:08:06;;;;;;;7.07;6.17;;;21.20;85.20;;;;;;4981383;28;20463;-80
2023/07/08 06:10:33;;;;;;;7.60;6.90;;;21.20;87.50;;;;;;4977422;28;20459;-79
2023/07/08 06:13:00;;;;;;;7.60;6.80;;;21.30;86.80;;;;;;4975030;28;20505;-79
2023/07/08 06:15:28;;;;;;;7.70;6.87;;;21.50;86.10;;;;;;4976166;28;20455;-80
2023/07/08 06:18:00;;;;;;;8.40;6.80;;;21.70;85.70;;;;;;4974202;28;20459;-79
2023/07/08 06:20:28;;;;;;;7.73;7.03;;;21.90;87.10;;;;;;4978693;28;20855;-79
2023/07/08 06:22:55;;;;;;;8.27;7.47;;;22.20;87.40;;;;;;4973067;28;20458;-79
2023/07/08 06:25:22;;;;;;;8.33;7.53;;;22.40;87.00;;;;;;4972744;28;20518;-79
2023/07/08 06:27:50;;;;;;;8.47;7.63;;;22.60;86.40;;;;;;4971177;28;20466;-81
2023/07/08 06:30:17;;;;;;;9.27;7.13;;;22.70;87.60;;;;;;4976054;28;20556;-79
2023/07/08 06:32:45;;;;;;;8.70;7.80;;;22.90;87.50;;;;;;4971320;28;20898;-75
2023/07/08 06:35:12;;;;;;;8.00;7.20;;;23.00;87.60;;;;;;4972890;28;20462;-79
2023/07/08 06:37:39;;;;;;;7.30;6.70;;;23.20;88.10;;;;;;4972234;28;22957;-80
2023/07/08 06:40:09;;;;;;;8.70;7.90;;;23.40;87.90;;;;;;4972962;28;20548;-69
2023/07/08 06:42:36;;;;;;;8.80;7.90;;;23.60;86.00;;;;;;4985069;28;20488;-68
2023/07/08 06:45:05;;;;;;;8.27;7.37;;;23.80;84.90;;;;;;4969753;28;20578;-70
2023/07/08 06:47:33;;;;;;;8.33;7.40;;;24.00;84.50;;;;;;4965262;28;20464;-71
2023/07/08 06:50:05;;;;;;;8.57;7.67;;;24.20;84.80;;;;;;4970632;28;20489;-71
2023/07/08 06:52:34;;;;;;;7.93;7.23;;;24.50;84.90;;;;;;4973587;28;20490;-70
2023/07/08 06:55:01;;;;;;;8.07;7.37;;;24.70;83.90;;;;;;4976891;28;21002;-69
2023/07/08 06:57:29;;;;;;;8.70;7.90;;;25.00;81.70;;;;;;4972419;28;20530;-71
2023/07/08 06:59:56;;;;;;;8.03;7.20;;;25.20;80.80;;;;;;4975399;28;20827;-71
2023/07/08 07:02:23;;;;;;;28.13;9.87;;;25.50;80.50;;;;;;4973174;28;20521;-70
2023/07/08 07:04:50;;;;;;;6.60;5.90;;;25.80;80.30;;;;;;4972590;28;20459;-71
2023/07/08 07:07:18;;;;;;;6.07;5.30;;;26.10;77.50;;;;;;4972885;28;20459;-70
2023/07/08 07:09:46;;;;;;;6.00;5.50;;;26.30;75.50;;;;;;4971391;28;20478;-68
2023/07/08 07:12:13;;;;;;;6.53;5.90;;;26.40;75.50;;;;;;4970692;28;20501;-74
2023/07/08 07:14:40;;;;;;;6.10;5.60;;;26.50;75.40;;;;;;4976051;28;21058;-70
2023/07/08 07:17:07;;;;;;;7.97;5.83;;;26.50;73.90;;;;;;4969847;28;20513;-68
2023/07/08 07:19:34;;;;;;;6.67;6.07;;;26.40;74.40;;;;;;4970023;28;20624;-68
2023/07/08 07:22:01;;;;;;;6.67;6.10;;;26.30;74.50;;;;;;4970072;28;20574;-68
2023/07/08 07:24:30;;;;;;;6.13;5.53;;;26.40;75.30;;;;;;4976081;28;20467;-68
2023/07/08 07:26:57;;;;;;;6.40;5.80;;;26.40;76.10;;;;;;4970047;28;20459;-71
2023/07/08 07:29:24;;;;;;;7.03;5.50;;;26.40;75.70;;;;;;4971525;28;20478;-70
2023/07/08 07:31:52;;;;;;;9.57;6.50;;;26.50;75.60;;;;;;4974246;28;20838;-70
2023/07/08 07:34:19;;;;;;;6.97;5.97;;;26.40;76.10;;;;;;4977746;28;21096;-68
2023/07/08 07:36:46;;;;;;;5.67;5.17;;;26.50;75.50;;;;;;4969874;28;20478;-72
2023/07/08 07:39:13;;;;;;;20.53;6.73;;;26.60;75.40;;;;;;4967785;28;20803;-70
2023/07/08 07:41:42;;;;;;;7.67;6.63;;;26.70;76.70;;;;;;4970355;28;21037;-74
2023/07/08 07:44:09;;;;;;;7.80;7.00;;;26.80;77.40;;;;;;4971045;28;20463;-71
2023/07/08 07:46:36;;;;;;;8.37;7.53;;;26.90;77.30;;;;;;4973030;28;20822;-71
2023/07/08 07:49:03;;;;;;;7.03;6.33;;;27.00;76.20;;;;;;4967333;28;20474;-71
2023/07/08 07:51:30;;;;;;;7.00;6.40;;;27.00;75.70;;;;;;4978221;28;20545;-71
2023/07/08 07:53:57;;;;;;;8.00;6.63;;;27.10;75.80;;;;;;4974608;28;20493;-72
2023/07/08 07:56:24;;;;;;;7.20;6.60;;;27.00;75.80;;;;;;4973655;28;20464;-73
2023/07/08 07:58:52;;;;;;;6.53;5.93;;;27.10;73.80;;;;;;4973494;28;20867;-71
2023/07/08 08:01:21;;;;;;;6.70;6.10;;;27.20;71.70;;;;;;4972789;28;20454;-70
2023/07/08 08:03:50;;;;;;;7.77;6.37;;;27.40;73.90;;;;;;4977155;28;20454;-70
2023/07/08 08:06:18;;;;;;;6.13;5.53;;;27.50;72.20;;;;;;4969985;28;20792;-64
2023/07/08 08:08:46;;;;;;;6.70;6.00;;;27.60;72.50;;;;;;4961375;28;21255;-64
2023/07/08 08:11:13;;;;;;;7.40;6.70;;;27.80;69.80;;;;;;4960021;28;20478;-64
2023/07/08 08:13:40;;;;;;;7.00;6.40;;;27.90;67.60;;;;;;4967333;28;20490;-64
2023/07/08 08:16:08;;;;;;;7.43;6.73;;;27.90;70.70;;;;;;4970225;28;20473;-64
2023/07/08 08:18:35;;;;;;;7.07;6.37;;;28.10;72.00;;;;;;4975724;28;20490;-64
2023/07/08 08:21:03;;;;;;;8.27;6.60;;;28.10;69.60;;;;;;4968660;28;20518;-64
2023/07/08 08:23:30;;;;;;;7.27;6.57;;;28.10;69.60;;;;;;4976002;28;20462;-64
2023/07/08 08:25:57;;;;;;;6.53;5.93;;;28.10;68.60;;;;;;4969759;28;20546;-64
2023/07/08 08:28:24;;;;;;;6.33;5.80;;;28.30;70.00;;;;;;4975486;28;20474;-64
2023/07/08 08:30:52;;;;;;;6.63;6.03;;;28.50;69.90;;;;;;4969332;28;20490;-64
2023/07/08 08:33:21;;;;;;;7.10;6.50;;;28.70;70.20;;;;;;4962932;28;20503;-64
2023/07/08 08:35:48;;;;;;;6.43;5.77;;;28.80;68.40;;;;;;4967167;28;20460;-64
2023/07/08 08:38:15;;;;;;;6.50;5.90;;;28.90;67.80;;;;;;4967480;28;21031;-64
2023/07/08 08:40:43;;;;;;;6.03;5.53;;;28.90;68.40;;;;;;4970738;28;20534;-64
2023/07/08 08:43:14;;;;;;;6.50;5.30;;;29.20;68.10;;;;;;4966727;28;20450;-64
2023/07/08 08:45:48;;;;;;;6.70;5.30;;;29.40;67.50;;;;;;4972017;28;20998;-64
2023/07/08 08:48:19;;;;;;;6.37;5.77;;;29.40;66.90;;;;;;4969479;28;20602;-64
2023/07/08 08:50:52;;;;;;;5.97;5.37;;;29.60;67.30;;;;;;4971329;28;20470;-64
2023/07/08 08:53:21;;;;;;;6.57;6.00;;;29.50;66.30;;;;;;4967036;28;20477;-64
2023/07/08 08:55:56;;;;;;;6.37;5.87;;;29.60;67.00;;;;;;4974838;28;20535;-64
2023/07/08 08:58:31;;;;;;;7.03;6.20;;;29.80;66.70;;;;;;4966577;28;20480;-64
2023/07/08 09:01:01;;;;;;;6.93;6.00;;;30.10;67.20;;;;;;4969125;28;20454;-64
2023/07/08 09:03:43;;;;;;;6.40;5.60;;;30.10;65.90;;;;;;4971893;28;20523;-64
2023/07/08 09:06:15;;;;;;;7.57;6.87;;;30.20;65.80;;;;;;4975080;28;20549;-64
2023/07/08 09:08:43;;;;;;;5.83;5.30;;;30.10;65.30;;;;;;4972692;28;20536;-64
2023/07/08 09:11:22;;;;;;;4.47;4.07;;;30.20;66.50;;;;;;4968673;28;22177;-64
2023/07/08 09:13:51;;;;;;;4.40;4.00;;;30.20;63.30;;;;;;4964715;28;20500;-63
2023/07/08 09:16:27;;;;;;;4.10;3.80;;;30.00;61.80;;;;;;4967807;28;20489;-63
2023/07/08 09:19:01;;;;;;;4.77;4.30;;;29.80;62.30;;;;;;4969643;28;20568;-64
2023/07/08 09:21:34;;;;;;;6.30;5.20;;;29.90;63.40;;;;;;4967854;28;20469;-64
2023/07/08 09:24:09;;;;;;;5.83;4.23;;;30.20;63.80;;;;;;4969839;28;20461;-64
2023/07/08 09:26:37;;;;;;;5.40;4.33;;;30.50;62.90;;;;;;4975280;28;20458;-64
2023/07/08 09:29:09;;;;;;;4.30;3.90;;;31.10;62.40;;;;;;4969337;28;20520;-64
2023/07/08 09:31:41;;;;;;;4.53;3.90;;;31.20;61.90;;;;;;4972825;28;20465;-64
2023/07/08 09:34:12;;;;;;;4.43;4.03;;;31.40;61.30;;;;;;4962833;28;20500;-64
2023/07/08 09:36:42;;;;;;;4.50;4.10;;;31.30;59.60;;;;;;4974745;28;20474;-65
2023/07/08 09:39:15;;;;;;;4.30;3.90;;;31.10;60.00;;;;;;4964073;28;20482;-64
2023/07/08 09:41:43;;;;;;;4.53;4.13;;;31.20;60.90;;;;;;4969198;28;20478;-64
2023/07/08 09:44:25;;;;;;;2.50;2.30;;;31.10;60.40;;;;;;4973204;28;21028;-64
2023/07/08 09:46:53;;;;;;;2.93;2.50;;;31.10;59.10;;;;;;4967493;28;20820;-64
2023/07/08 09:49:23;;;;;;;2.23;2.00;;;31.20;61.20;;;;;;4973981;28;20482;-64
2023/07/08 09:51:52;;;;;;;2.43;2.00;;;31.00;61.00;;;;;;4974050;28;20959;-64
2023/07/08 09:54:21;;;;;;;2.53;2.20;;;31.10;60.10;;;;;;4975437;28;20597;-66
2023/07/08 09:56:58;;;;;;;2.37;2.17;;;31.20;59.60;;;;;;4971040;28;20838;-64
2023/07/08 09:59:31;;;;;;;2.80;2.50;;;31.10;58.90;;;;;;4969342;28;20556;-64
2023/07/08 10:02:01;;;;;;;2.60;2.20;;;31.20;58.90;;;;;;4969694;28;20462;-63
2023/07/08 10:04:28;;;;;;;2.33;2.13;;;31.40;57.70;;;;;;4971641;28;20545;-63
2023/07/08 10:06:57;;;;;;;2.63;2.00;;;31.40;57.50;;;;;;4967623;28;20476;-65
2023/07/08 10:09:26;;;;;;;2.50;2.30;;;31.50;57.40;;;;;;4965945;28;20479;-64
2023/07/08 10:11:58;;;;;;;2.30;2.10;;;31.70;57.00;;;;;;4972500;28;20486;-65
2023/07/08 10:14:29;;;;;;;2.00;1.80;;;32.10;57.00;;;;;;4972120;28;20491;-65
2023/07/08 10:16:57;;;;;;;2.23;2.03;;;32.70;55.30;;;;;;4974662;28;20451;-64
2023/07/08 10:19:24;;;;;;;2.33;2.13;;;32.80;54.50;;;;;;4971850;28;20542;-64
2023/07/08 10:22:13;;;;;;;2.73;2.07;;;32.90;55.30;;;;;;4974508;28;20857;-64
2023/07/08 10:24:55;;;;;;;3.80;2.20;;;33.40;55.30;;;;;;4976664;28;20489;-64
2023/07/08 10:27:28;;;;;;;2.37;2.17;;;33.50;55.30;;;;;;4970031;28;20581;-63
2023/07/08 10:30:02;;;;;;;2.63;2.43;;;33.70;53.70;;;;;;4975046;28;20868;-64
2023/07/08 10:32:42;;;;;;;2.50;2.30;;;34.20;53.10;;;;;;4976779;28;20465;-64
2023/07/08 10:35:15;;;;;;;2.40;2.20;;;34.80;52.60;;;;;;4978839;28;20489;-65
2023/07/08 10:37:58;;;;;;;3.47;2.50;;;34.80;52.50;;;;;;4963514;28;20467;-65
2023/07/08 10:40:47;;;;;;;3.20;2.90;;;35.20;53.30;;;;;;4977586;28;20458;-64
2023/07/08 10:43:32;;;;;;;2.57;2.37;;;35.10;53.10;;;;;;4980689;28;20458;-65
2023/07/08 10:46:11;;;;;;;4.00;2.90;;;35.40;54.40;;;;;;4971765;28;20458;-64
2023/07/08 10:48:56;;;;;;;3.57;3.27;;;35.40;54.10;;;;;;4959220;28;20469;-74
2023/07/08 10:51:31;;;;;;;3.60;3.27;;;34.80;54.60;;;;;;4972337;28;20465;-65
2023/07/08 10:54:29;;;;;;;4.27;3.87;;;34.20;55.90;;;;;;4981758;28;20577;-62
2023/07/08 10:57:09;;;;;;;5.93;5.03;;;33.60;56.70;;;;;;4973379;28;20537;-64
2023/07/08 10:59:49;;;;;;;6.40;5.07;;;33.00;58.80;;;;;;4973999;28;20573;-64
2023/07/08 11:02:43;;;;;;;5.07;4.67;;;33.00;59.30;;;;;;4974995;28;20516;-64
2023/07/08 11:05:23;;;;;;;4.47;4.07;;;32.80;59.90;;;;;;4976779;28;21057;-64
2023/07/08 11:07:56;;;;;;;5.07;4.23;;;32.50;59.10;;;;;;4975082;28;20533;-65
2023/07/08 11:10:30;;;;;;;4.13;3.73;;;32.50;59.00;;;;;;4970730;28;20463;-65
2023/07/08 11:13:04;;;;;;;5.37;4.63;;;32.70;59.70;;;;;;4972909;28;20455;-64
2023/07/08 11:15:37;;;;;;;4.00;3.70;;;32.60;58.80;;;;;;4971027;28;20551;-64
2023/07/08 11:18:08;;;;;;;4.60;4.20;;;32.70;58.00;;;;;;4974422;28;20537;-65
2023/07/08 11:20:41;;;;;;;4.13;3.83;;;32.90;57.30;;;;;;4975323;28;20455;-65
2023/07/08 11:23:20;;;;;;;4.53;4.10;;;33.00;57.60;;;;;;4969479;28;20562;-64
2023/07/08 11:25:50;;;;;;;3.97;3.63;;;33.10;57.50;;;;;;4971223;28;20641;-64
2023/07/08 11:28:22;;;;;;;5.90;3.87;;;33.50;58.70;;;;;;4970114;28;20543;-64
2023/07/08 11:30:52;;;;;;;4.07;3.77;;;33.70;57.00;;;;;;4971109;28;20467;-65
2023/07/08 11:33:25;;;;;;;6.50;3.80;;;33.90;56.40;;;;;;4972605;28;20466;-63
2023/07/08 11:35:56;;;;;;;4.50;3.40;;;33.90;56.00;;;;;;4971580;28;20478;-64
2023/07/08 11:38:23;;;;;;;6.83;4.20;;;34.20;54.90;;;;;;4973748;28;20596;-64
2023/07/08 11:40:55;;;;;;;3.33;3.13;;;34.40;55.10;;;;;;4973456;28;21584;-76
2023/07/08 11:43:25;;;;;;;3.57;3.27;;;34.30;54.10;;;;;;4971198;28;20545;-63
2023/07/08 11:45:56;;;;;;;3.33;3.13;;;34.20;54.40;;;;;;4968521;28;20463;-65
2023/07/08 11:48:27;;;;;;;3.17;2.97;;;34.10;54.20;;;;;;4970965;28;20637;-65
2023/07/08 11:50:57;;;;;;;5.63;4.23;;;34.00;54.80;;;;;;4975915;28;20458;-75
2023/07/08 11:53:37;;;;;;;2.90;2.70;;;34.40;54.00;;;;;;4985355;28;20463;-65
2023/07/08 11:56:23;;;;;;;3.30;3.00;;;34.90;53.40;;;;;;4973730;28;20482;-66
2023/07/08 11:59:04;;;;;;;3.33;3.03;;;35.20;53.20;;;;;;4973594;28;20504;-66
2023/07/08 12:01:38;;;;;;;3.27;3.07;;;35.70;52.10;;;;;;4970742;28;20463;-65
2023/07/08 12:04:22;;;;;;;3.43;3.13;;;36.10;52.50;;;;;;4969011;28;20549;-63
2023/07/08 12:06:58;;;;;;;3.63;3.20;;;36.30;51.20;;;;;;4969560;28;20553;-64
2023/07/08 12:09:29;;;;;;;3.10;2.90;;;36.70;51.50;;;;;;4975203;28;20479;-65
2023/07/08 12:12:01;;;;;;;3.30;3.00;;;36.70;50.50;;;;;;4971538;28;20907;-65
2023/07/08 12:14:30;;;;;;;3.80;2.80;;;37.00;50.70;;;;;;4977920;28;20538;-67
2023/07/08 12:16:57;;;;;;;4.97;2.90;;;37.40;50.20;;;;;;4969803;28;20459;-64
2023/07/08 12:19:28;;;;;;;3.30;3.00;;;37.20;49.80;;;;;;4973240;28;20563;-65
2023/07/08 12:21:55;;;;;;;3.40;3.10;;;36.30;49.60;;;;;;4973437;28;20458;-64
2023/07/08 12:24:26;;;;;;;3.13;2.83;;;36.50;49.60;;;;;;4988019;28;20449;-66
2023/07/08 12:26:53;;;;;;;3.13;2.83;;;36.70;49.90;;;;;;4969016;28;22019;-67
2023/07/08 12:29:23;;;;;;;3.20;3.00;;;37.00;49.10;;;;;;4971727;28;20479;-65
2023/07/08 12:31:50;;;;;;;3.40;2.63;;;37.60;49.00;;;;;;4970778;28;20465;-68
2023/07/08 12:34:18;;;;;;;3.13;2.70;;;37.80;47.90;;;;;;4964946;28;20613;-66
2023/07/08 12:36:47;;;;;;;3.17;2.87;;;38.30;47.30;;;;;;4980390;28;20494;-65
2023/07/08 12:39:16;;;;;;;3.53;3.03;;;37.80;47.30;;;;;;4969985;28;21098;-64
2023/07/08 12:41:46;;;;;;;2.80;2.60;;;37.40;48.10;;;;;;4970966;28;20554;-64
2023/07/08 12:44:19;;;;;;;3.30;2.90;;;37.90;48.40;;;;;;4970078;28;20462;-65
2023/07/08 12:46:49;;;;;;;3.40;3.10;;;38.40;47.00;;;;;;4985196;28;20800;-65
2023/07/08 12:49:18;;;;;;;2.90;2.70;;;38.20;46.50;;;;;;4969212;28;20478;-66
2023/07/08 12:51:47;;;;;;;3.13;2.67;;;38.50;47.00;;;;;;4971588;28;20816;-65
2023/07/08 12:54:14;;;;;;;3.80;2.80;;;38.60;45.80;;;;;;4969705;28;20545;-66
2023/07/08 12:56:46;;;;;;;3.20;2.80;;;39.10;45.40;;;;;;4970048;28;20545;-66
2023/07/08 12:59:17;;;;;;;3.10;2.80;;;39.80;45.50;;;;;;4975743;28;20521;-67
2023/07/08 13:01:48;;;;;;;3.03;2.60;;;39.60;45.00;;;;;;4970188;28;20561;-65